Time;durP1;ratioP1;P1;durP2;ratioP2;P2;SDS_P1;SDS_P2;PMS_P1;PMS_P2;Temp;Humidity;BMP_temperature;BMP_pressure;BME280_temperature;BME280_humidity;BME280_pressure;Samples;Min_cycle;Max_cycle;Signal;HPM_P1;HPM_P2
2023/06/15 00:00:30;;;;;;;7.35;2.33;;;;;;;16.32;77.82;100970.63;5211856;28;20037;-71
2023/06/15 00:03:01;;;;;;;3.75;2.22;;;;;;;16.28;77.12;100975.22;5210210;28;20052;-71
2023/06/15 00:05:31;;;;;;;8.75;2.55;;;;;;;16.23;77.49;100977.22;5196429;28;20639;-71
2023/06/15 00:08:01;;;;;;;4.68;2.15;;;;;;;16.32;77.01;100971.47;5210202;28;20104;-71
2023/06/15 00:10:32;;;;;;;6.35;2.42;;;;;;;16.26;76.66;100976.22;5210757;28;20041;-71
2023/06/15 00:13:02;;;;;;;3.35;1.92;;;;;;;16.44;75.71;100978.78;5210280;28;20600;-71
2023/06/15 00:15:32;;;;;;;4.38;2.20;;;;;;;16.49;76.32;100974.13;5211661;28;20119;-71
2023/06/15 00:18:03;;;;;;;3.65;1.92;;;;;;;16.53;75.48;100980.09;5207735;28;20032;-71
2023/06/15 00:20:34;;;;;;;6.63;2.20;;;;;;;16.56;74.79;100969.38;5210558;28;20033;-71
2023/06/15 00:23:08;;;;;;;6.63;2.28;;;;;;;16.52;74.72;100968.66;5195370;28;20115;-71
2023/06/15 00:25:38;;;;;;;5.57;2.10;;;;;;;16.35;75.66;100970.50;5211304;28;20115;-71
2023/06/15 00:31:16;;;;;;;5.63;2.20;;;;;;;16.24;76.17;100972.81;5208597;28;20362;-71
2023/06/15 00:33:46;;;;;;;4.87;2.23;;;;;;;16.11;76.17;100964.69;5208137;28;20032;-71
2023/06/15 00:36:17;;;;;;;4.60;2.10;;;;;;;16.17;75.52;100967.00;5206510;28;20294;-71
2023/06/15 00:38:48;;;;;;;5.68;2.10;;;;;;;16.11;75.90;100969.97;5179737;23;20683;-73
2023/06/15 00:41:18;;;;;;;3.72;2.00;;;;;;;16.15;75.34;100968.00;5150399;28;20030;-76
2023/06/15 00:43:49;;;;;;;4.25;2.38;;;;;;;16.14;75.71;100974.22;5168177;28;20492;-72
2023/06/15 00:46:20;;;;;;;3.63;2.28;;;;;;;16.22;75.58;100975.53;5172606;28;20087;-76
2023/06/15 00:48:50;;;;;;;4.38;2.15;;;;;;;16.25;74.87;100975.34;5178398;28;20499;-75
2023/06/15 00:51:21;;;;;;;4.53;2.17;;;;;;;16.27;74.78;100968.25;5162041;28;20079;-74
2023/06/15 00:53:51;;;;;;;5.57;2.30;;;;;;;16.26;75.17;100977.09;5160777;28;20126;-75
2023/06/15 00:56:21;;;;;;;5.82;2.20;;;;;;;16.18;74.79;100970.50;5177408;28;20076;-75
2023/06/15 00:58:52;;;;;;;6.97;2.38;;;;;;;16.02;76.18;100975.72;5160003;28;20135;-75
2023/06/15 01:01:23;;;;;;;10.15;2.33;;;;;;;16.02;75.63;100977.50;5162746;28;20527;-76
2023/06/15 01:03:54;;;;;;;5.60;2.38;;;;;;;16.08;75.64;100978.00;5174372;28;20030;-76
2023/06/15 01:06:31;;;;;;;6.72;2.63;;;;;;;15.94;75.74;100975.25;5179633;28;20376;-76
2023/06/15 01:09:02;;;;;;;4.55;2.25;;;;;;;15.93;75.44;100970.94;5179500;28;20241;-76
2023/06/15 01:11:33;;;;;;;4.72;2.05;;;;;;;15.76;76.58;100975.31;5179781;28;20104;-76
2023/06/15 01:14:05;;;;;;;4.85;2.00;;;;;;;15.89;76.01;100969.34;5175983;28;20030;-76
2023/06/15 01:16:38;;;;;;;6.15;2.28;;;;;;;15.62;78.23;100972.53;5180194;28;20033;-76
2023/06/15 01:19:54;;;;;;;4.60;2.10;;;;;;;15.88;76.30;100975.56;5174751;28;20030;-75
2023/06/15 01:22:45;;;;;;;4.13;2.05;;;;;;;15.64;77.99;100978.56;5166174;28;20060;-76
2023/06/15 01:25:26;;;;;;;4.32;2.00;;;;;;;15.71;76.10;100977.34;5162852;28;20028;-72
2023/06/15 01:27:58;;;;;;;6.45;2.05;;;;;;;15.57;77.52;100971.91;5178390;28;20663;-75
2023/06/15 01:30:38;;;;;;;3.95;1.95;;;;;;;15.49;77.88;100974.03;5181394;28;20029;-76
2023/06/15 01:33:10;;;;;;;4.93;2.38;;;;;;;15.38;79.11;100974.56;5179023;28;20112;-76
2023/06/15 01:35:40;;;;;;;3.85;2.05;;;;;;;15.41;77.64;100978.84;5165750;28;20606;-75
2023/06/15 01:38:12;;;;;;;5.80;2.28;;;;;;;15.36;77.30;100971.16;5182363;28;20034;-76
2023/06/15 01:40:47;;;;;;;5.15;2.30;;;;;;;15.29;78.56;100977.69;5181554;28;20061;-76
2023/06/15 01:43:21;;;;;;;4.70;2.22;;;;;;;15.35;78.34;100974.72;5182428;28;20025;-76
2023/06/15 01:45:53;;;;;;;4.20;2.20;;;;;;;15.06;78.93;100975.25;5177592;28;20030;-76
2023/06/15 01:48:25;;;;;;;3.45;1.98;;;;;;;15.00;79.49;100972.91;5178966;28;20033;-76
2023/06/15 01:50:56;;;;;;;4.28;1.90;;;;;;;15.00;79.51;100972.91;5165988;28;20034;-76
2023/06/15 01:53:26;;;;;;;5.22;2.30;;;;;;;15.04;79.40;100974.47;5182679;28;20045;-75
2023/06/15 01:55:58;;;;;;;4.43;2.10;;;;;;;15.09;79.49;100975.13;5180410;28;20028;-76
2023/06/15 01:58:28;;;;;;;4.03;2.00;;;;;;;15.08;79.33;100973.41;5180589;28;20487;-75
2023/06/15 02:00:58;;;;;;;5.13;2.20;;;;;;;14.88;80.28;100977.91;5181561;28;20040;-74
2023/06/15 02:03:28;;;;;;;4.27;2.10;;;;;;;14.74;81.42;100979.47;5179596;28;20835;-75
2023/06/15 02:05:59;;;;;;;4.53;2.10;;;;;;;14.85;80.65;100978.03;5179869;28;20751;-76
2023/06/15 02:08:29;;;;;;;8.40;1.90;;;;;;;14.81;80.14;100981.75;5165346;28;20861;-76
2023/06/15 02:11:00;;;;;;;6.30;2.35;;;;;;;14.67;80.96;100983.28;5165379;28;20346;-76
2023/06/15 02:13:30;;;;;;;5.28;2.20;;;;;;;14.74;81.04;100979.47;5179656;28;20037;-76
2023/06/15 02:16:01;;;;;;;4.05;2.25;;;;;;;14.69;79.98;100984.06;5177938;28;20030;-76
2023/06/15 02:18:31;;;;;;;5.95;2.20;;;;;;;14.73;80.01;100980.41;5179329;28;20504;-76
2023/06/15 02:21:01;;;;;;;6.57;2.00;;;;;;;14.61;81.32;100978.31;5178734;28;20033;-76
2023/06/15 02:23:32;;;;;;;5.75;2.13;;;;;;;14.49;81.08;100979.72;5180827;28;20275;-72
2023/06/15 02:26:02;;;;;;;3.70;2.10;;;;;;;14.67;80.96;100976.25;5164490;28;20088;-76
2023/06/15 02:28:33;;;;;;;4.63;2.28;;;;;;;14.59;82.02;100981.00;5178807;28;20336;-76
2023/06/15 02:31:03;;;;;;;5.00;2.20;;;;;;;14.45;81.09;100987.81;5179955;28;20466;-75
2023/06/15 02:33:33;;;;;;;3.85;2.20;;;;;;;14.38;82.19;100983.72;5161633;28;20060;-76
2023/06/15 02:36:06;;;;;;;5.35;2.33;;;;;;;14.38;82.21;100981.09;5179749;28;20029;-75
2023/06/15 02:38:37;;;;;;;5.93;2.35;;;;;;;14.31;82.83;100980.56;5178070;28;20070;-76
2023/06/15 02:41:07;;;;;;;11.77;5.82;;;;;;;14.04;83.35;100994.84;5179551;28;20029;-77
2023/06/15 02:43:37;;;;;;;10.30;5.45;;;;;;;13.92;84.60;100986.66;5179487;28;20037;-75
2023/06/15 02:46:08;;;;;;;8.45;3.10;;;;;;;13.55;86.08;100991.72;5178968;28;20049;-75
2023/06/15 02:48:38;;;;;;;5.70;2.75;;;;;;;13.58;86.97;101002.09;5177689;28;20248;-77
2023/06/15 02:51:09;;;;;;;5.32;2.70;;;;;;;13.57;87.57;101000.41;5178310;28;20080;-72
2023/06/15 02:53:39;;;;;;;6.68;2.30;;;;;;;13.58;87.94;100992.44;5179538;28;20621;-75
2023/06/15 02:56:09;;;;;;;3.75;2.50;;;;;;;13.73;86.94;100996.22;5177427;28;20030;-73
2023/06/15 02:58:42;;;;;;;5.65;2.45;;;;;;;13.82;86.05;100995.81;5178637;28;20025;-76
2023/06/15 03:01:12;;;;;;;5.57;2.55;;;;;;;13.62;86.97;100999.28;5163133;28;20029;-75
2023/06/15 03:03:43;;;;;;;6.00;2.40;;;;;;;13.37;88.50;101000.34;5178451;28;20030;-75
2023/06/15 03:06:16;;;;;;;5.00;2.38;;;;;;;13.10;88.05;101001.44;5178070;28;20030;-75
2023/06/15 03:08:47;;;;;;;5.47;2.08;;;;;;;13.05;88.77;101000.75;5179125;28;20026;-75
2023/06/15 03:11:17;;;;;;;5.40;2.40;;;;;;;12.84;90.80;101004.16;5178007;28;20022;-76
2023/06/15 03:13:47;;;;;;;6.93;2.75;;;;;;;13.37;86.22;101002.97;5162071;28;20034;-73
2023/06/15 03:16:17;;;;;;;6.72;2.40;;;;;;;13.09;86.73;101002.34;5178512;28;20213;-76
2023/06/15 03:18:48;;;;;;;5.20;2.30;;;;;;;12.82;89.44;101013.00;5177284;28;20029;-72
2023/06/15 03:21:22;;;;;;;3.42;1.92;;;;;;;13.06;87.49;101008.56;5179098;28;20030;-77
2023/06/15 03:23:52;;;;;;;3.88;2.25;;;;;;;12.97;88.45;101008.06;5162979;28;20518;-75
2023/06/15 03:26:26;;;;;;;4.90;2.25;;;;;;;12.66;89.68;101004.84;5176958;28;20037;-75
2023/06/15 03:28:57;;;;;;;5.50;2.17;;;;;;;12.95;88.57;100998.56;5177336;28;20121;-74
2023/06/15 03:31:28;;;;;;;9.90;2.40;;;;;;;13.05;86.92;101006.00;5177601;28;20547;-76
2023/06/15 03:34:02;;;;;;;4.38;2.20;;;;;;;13.13;88.14;101003.94;5175528;28;20030;-75
2023/06/15 03:36:32;;;;;;;4.78;2.28;;;;;;;12.83;88.04;101015.56;5164771;28;20403;-75
2023/06/15 03:39:03;;;;;;;3.38;2.10;;;;;;;12.72;89.97;101017.75;5176963;28;20022;-77
2023/06/15 03:41:36;;;;;;;4.30;2.40;;;;;;;12.77;90.29;101021.03;5164039;28;20030;-76
2023/06/15 03:44:07;;;;;;;8.20;2.22;;;;;;;12.88;90.82;101018.88;5177868;28;20021;-75
2023/06/15 03:46:37;;;;;;;5.20;2.10;;;;;;;12.86;89.46;101023.34;5178319;28;20044;-76
2023/06/15 03:49:08;;;;;;;6.55;2.10;;;;;;;12.98;91.23;101022.88;5177061;28;20033;-75
2023/06/15 03:51:38;;;;;;;8.13;2.15;;;;;;;13.38;87.44;101021.28;5178759;28;20029;-76
2023/06/15 03:54:08;;;;;;;4.97;2.28;;;;;;;13.44;87.19;101015.78;5178023;28;20025;-75
2023/06/15 03:56:39;;;;;;;6.95;2.30;;;;;;;13.50;87.03;101014.69;5175762;28;20088;-75
2023/06/15 03:59:09;;;;;;;3.60;2.15;;;;;;;13.52;86.68;101012.84;5176267;28;20041;-76
2023/06/15 04:01:39;;;;;;;3.80;2.03;;;;;;;13.50;87.62;101019.94;5177963;28;20561;-76
2023/06/15 04:04:12;;;;;;;3.97;2.33;;;;;;;13.28;88.81;101027.81;5162097;28;20039;-74
2023/06/15 04:06:46;;;;;;;5.60;2.92;;;;;;;13.58;87.71;101028.38;5178571;28;20049;-75
2023/06/15 04:09:17;;;;;;;5.75;2.50;;;;;;;13.62;88.18;101033.44;5177873;28;20087;-72
2023/06/15 04:11:47;;;;;;;6.03;2.55;;;;;;;13.82;88.73;101028.22;5178068;28;20495;-75
2023/06/15 04:14:18;;;;;;;5.13;2.55;;;;;;;13.39;90.73;101043.16;5175387;28;20022;-73
2023/06/15 04:16:48;;;;;;;7.63;2.58;;;;;;;13.24;91.70;101028.00;5177414;28;20036;-72
2023/06/15 04:19:22;;;;;;;5.40;2.67;;;;;;;13.40;91.73;101039.63;5176295;28;20041;-75
2023/06/15 04:21:52;;;;;;;7.32;2.40;;;;;;;13.38;92.33;101036.19;5173791;28;20084;-75
2023/06/15 04:24:22;;;;;;;5.57;2.60;;;;;;;13.69;91.11;101036.66;5175342;28;20017;-75
2023/06/15 04:26:53;;;;;;;5.70;2.42;;;;;;;14.12;88.19;101026.06;5176413;28;20030;-76
2023/06/15 04:29:23;;;;;;;8.07;2.35;;;;;;;13.93;89.86;101043.53;5177019;28;20084;-75
2023/06/15 04:31:54;;;;;;;9.68;2.60;;;;;;;14.27;87.61;101031.53;5176075;28;20124;-75
2023/06/15 04:34:26;;;;;;;7.03;2.50;;;;;;;14.20;88.98;101031.88;5160306;28;20030;-76
2023/06/15 04:36:56;;;;;;;5.30;2.58;;;;;;;14.33;89.43;101033.94;5176575;28;20036;-74
2023/06/15 04:39:27;;;;;;;7.68;3.08;;;;;;;14.53;89.36;101033.91;5174310;28;20034;-75
2023/06/15 04:41:57;;;;;;;4.32;2.33;;;;;;;15.74;82.87;101029.91;5176056;28;20029;-76
2023/06/15 04:44:27;;;;;;;6.00;2.65;;;;;;;16.69;79.54;101034.59;5176743;28;20077;-76
2023/06/15 04:47:00;;;;;;;4.75;2.38;;;;;;;18.44;75.21;101021.84;5175969;28;20472;-76
2023/06/15 04:49:31;;;;;;;4.38;2.40;;;;;;;19.91;66.93;101023.75;5176334;28;20057;-76
2023/06/15 04:52:02;;;;;;;3.28;2.13;;;;;;;21.56;64.74;101014.66;5177107;28;20438;-76
2023/06/15 04:54:32;;;;;;;6.03;2.30;;;;;;;22.66;61.33;101012.38;5176037;28;20045;-77
2023/06/15 04:57:03;;;;;;;5.05;2.03;;;;;;;23.78;57.94;101012.00;5179598;28;20108;-76
2023/06/15 04:59:34;;;;;;;5.85;1.90;;;;;;;23.62;56.94;101008.91;5180342;28;20064;-76
2023/06/15 05:02:06;;;;;;;5.05;2.08;;;;;;;24.61;55.42;101008.44;5167005;28;20373;-76
2023/06/15 05:04:36;;;;;;;4.32;2.10;;;;;;;25.80;53.99;101009.25;5178753;28;20487;-77
2023/06/15 05:07:06;;;;;;;4.32;2.17;;;;;;;25.79;51.48;101005.69;5180052;28;20030;-76
2023/06/15 05:09:37;;;;;;;5.53;2.20;;;;;;;25.09;54.78;101012.16;5179964;28;20358;-71
2023/06/15 05:12:08;;;;;;;6.63;2.00;;;;;;;25.57;53.62;101022.03;5181049;28;20042;-75
2023/06/15 05:14:38;;;;;;;4.03;1.95;;;;;;;26.69;51.12;101007.06;5178759;28;20514;-73
2023/06/15 05:17:08;;;;;;;6.10;2.13;;;;;;;26.60;50.78;101010.59;5181778;28;20030;-73
2023/06/15 05:19:39;;;;;;;8.57;2.23;;;;;;;26.63;49.75;101012.97;5180109;28;20029;-74
2023/06/15 05:22:09;;;;;;;5.15;2.20;;;;;;;26.71;51.21;101010.44;5185631;28;20785;-74
2023/06/15 05:24:39;;;;;;;3.20;1.83;;;;;;;26.55;50.58;101007.50;5179639;28;20496;-73
2023/06/15 05:27:10;;;;;;;4.00;2.10;;;;;;;26.10;51.62;101012.66;5183193;28;20064;-70
2023/06/15 05:29:40;;;;;;;4.65;2.05;;;;;;;26.31;51.90;101007.13;5185411;28;20334;-74
2023/06/15 05:32:10;;;;;;;4.63;2.20;;;;;;;26.36;52.81;101011.03;5183686;28;20073;-74
2023/06/15 05:34:41;;;;;;;9.00;2.10;;;;;;;25.97;53.09;101014.75;5180929;28;20293;-74
2023/06/15 05:37:11;;;;;;;6.57;2.30;;;;;;;26.83;51.49;101010.97;5184802;28;20443;-74
2023/06/15 05:39:41;;;;;;;4.65;2.22;;;;;;;25.72;54.19;101025.16;5184062;28;20281;-73
2023/06/15 05:42:12;;;;;;;6.43;2.10;;;;;;;25.39;53.95;101018.34;5181803;28;20029;-74
2023/06/15 05:44:42;;;;;;;3.55;2.20;;;;;;;24.84;53.68;101026.00;5182306;28;20309;-73
2023/06/15 05:47:12;;;;;;;6.13;2.25;;;;;;;24.42;55.30;101018.97;5166829;28;20038;-71
2023/06/15 05:49:43;;;;;;;5.03;2.10;;;;;;;23.95;56.27;101024.84;5178522;28;20458;-74
2023/06/15 05:52:14;;;;;;;3.55;1.88;;;;;;;23.35;58.05;101032.50;5165769;28;20269;-75
2023/06/15 05:54:45;;;;;;;3.38;2.17;;;;;;;23.44;57.97;101033.59;5181745;28;20026;-73
2023/06/15 05:57:16;;;;;;;6.45;2.72;;;;;;;23.04;58.52;101032.41;5167889;28;20087;-71
2023/06/15 05:59:46;;;;;;;4.60;2.08;;;;;;;22.50;58.64;101030.53;5187550;28;20041;-75
2023/06/15 06:02:17;;;;;;;4.25;2.03;;;;;;;23.06;57.70;101028.63;5179954;28;20395;-73
2023/06/15 06:04:47;;;;;;;6.22;2.20;;;;;;;22.71;58.04;101035.88;5181523;28;20025;-74
2023/06/15 06:07:17;;;;;;;11.88;3.42;;;;;;;22.89;57.99;101030.94;5167363;28;20026;-71
2023/06/15 06:09:48;;;;;;;3.78;2.28;;;;;;;22.82;58.06;101035.91;5186519;28;20025;-70
2023/06/15 06:12:18;;;;;;;3.80;1.90;;;;;;;23.03;55.90;101030.72;5181796;28;20030;-72
2023/06/15 06:14:48;;;;;;;5.90;2.35;;;;;;;23.34;55.58;101038.81;5182686;28;20399;-70
2023/06/15 06:17:18;;;;;;;5.13;2.08;;;;;;;23.15;56.60;101030.59;5161689;28;20025;-73
2023/06/15 06:19:51;;;;;;;8.65;2.00;;;;;;;23.82;55.55;101029.50;5179936;28;20495;-71
2023/06/15 06:22:22;;;;;;;4.05;2.15;;;;;;;23.70;54.55;101033.13;5180967;28;20431;-75
2023/06/15 06:24:52;;;;;;;4.97;2.63;;;;;;;24.31;54.20;101021.72;5179633;28;20072;-74
2023/06/15 06:27:23;;;;;;;5.57;2.03;;;;;;;23.41;56.22;101029.34;5183529;28;20022;-73
2023/06/15 06:29:53;;;;;;;4.95;1.98;;;;;;;24.33;53.64;101016.25;5180892;28;20318;-74
2023/06/15 06:32:24;;;;;;;2.92;1.70;;;;;;;24.63;52.59;101027.88;5181102;28;20373;-75
2023/06/15 06:34:54;;;;;;;4.35;2.10;;;;;;;24.83;53.05;101032.34;5179842;28;20084;-74
2023/06/15 06:37:25;;;;;;;6.57;2.00;;;;;;;25.07;53.62;101022.16;5207910;23;20119;-72
2023/06/15 06:39:55;;;;;;;3.73;1.83;;;;;;;23.60;55.94;101029.56;5228974;28;20037;-73
2023/06/15 06:42:25;;;;;;;2.87;1.57;;;;;;;24.98;54.56;101017.63;5228055;28;20378;-72
2023/06/15 06:44:56;;;;;;;3.67;1.80;;;;;;;25.19;53.64;101015.75;5216741;28;20282;-73
2023/06/15 06:47:26;;;;;;;4.13;2.17;;;;;;;25.83;51.87;101006.28;5226795;28;20028;-73
2023/06/15 06:49:59;;;;;;;4.88;1.80;;;;;;;26.25;49.90;101010.34;5211296;28;20295;-74
2023/06/15 06:52:29;;;;;;;3.65;1.83;;;;;;;26.99;48.57;100996.88;5210436;28;20033;-73
2023/06/15 06:55:00;;;;;;;2.63;1.53;;;;;;;26.28;49.85;101002.88;5208270;28;20395;-72
2023/06/15 06:57:30;;;;;;;3.47;1.70;;;;;;;25.80;50.80;101006.56;5194857;28;20283;-73
2023/06/15 07:00:00;;;;;;;5.40;1.65;;;;;;;25.81;48.88;100995.69;5206005;28;20022;-72
2023/06/15 07:02:32;;;;;;;2.13;1.50;;;;;;;27.03;47.91;101007.19;5205761;28;20163;-73
2023/06/15 07:05:02;;;;;;;4.47;2.00;;;;;;;26.98;47.75;101003.25;5203121;28;20024;-73
2023/06/15 07:07:32;;;;;;;4.90;2.20;;;;;;;27.56;46.66;101000.13;5205342;28;20387;-73
2023/06/15 07:10:03;;;;;;;3.97;1.40;;;;;;;26.19;48.87;101013.63;5196071;28;20108;-73
2023/06/15 07:12:34;;;;;;;4.40;1.67;;;;;;;27.13;48.28;101001.81;5207177;28;20083;-72
2023/06/15 07:15:05;;;;;;;6.22;1.70;;;;;;;28.46;47.40;101007.00;5211085;28;20278;-73
2023/06/15 07:17:36;;;;;;;5.53;1.60;;;;;;;28.25;45.91;101011.00;5196026;28;20410;-73
2023/06/15 07:20:07;;;;;;;5.57;1.50;;;;;;;28.38;45.08;101006.97;5206632;28;20021;-73
2023/06/15 07:22:37;;;;;;;2.63;1.55;;;;;;;28.12;45.90;101008.72;5208819;28;20394;-73
2023/06/15 07:25:07;;;;;;;7.13;1.80;;;;;;;27.84;45.46;101014.34;5209723;28;20177;-73
2023/06/15 07:27:37;;;;;;;2.88;1.38;;;;;;;28.64;44.73;101006.97;5210448;28;20287;-73
2023/06/15 07:30:08;;;;;;;4.00;1.53;;;;;;;28.58;45.99;101003.06;5206690;28;20052;-73
2023/06/15 07:32:39;;;;;;;2.25;1.40;;;;;;;28.21;47.17;101007.81;5195214;28;20275;-73
2023/06/15 07:35:09;;;;;;;2.83;1.70;;;;;;;29.21;45.73;100999.03;5208284;28;20441;-74
2023/06/15 07:37:39;;;;;;;3.45;1.77;;;;;;;29.11;46.76;101003.69;5207547;28;20309;-73
2023/06/15 07:40:10;;;;;;;2.78;1.40;;;;;;;29.36;45.26;101005.44;5207889;28;20112;-73
2023/06/15 07:42:40;;;;;;;4.90;1.42;;;;;;;30.08;45.14;100992.16;5196935;28;20028;-73
2023/06/15 07:45:11;;;;;;;5.70;1.60;;;;;;;30.52;45.20;100996.16;5207884;28;20044;-73
2023/06/15 07:47:41;;;;;;;2.17;1.38;;;;;;;31.05;43.94;100986.41;5196346;28;20299;-73
2023/06/15 07:50:11;;;;;;;3.75;1.60;;;;;;;31.84;42.51;100990.53;5191455;28;20028;-74
2023/06/15 07:52:42;;;;;;;3.07;1.50;;;;;;;31.66;42.68;100992.72;5193286;28;20461;-73
2023/06/15 07:55:12;;;;;;;2.60;1.40;;;;;;;31.73;42.53;100992.84;5203245;28;20283;-75
2023/06/15 07:57:42;;;;;;;3.67;2.00;;;;;;;31.72;42.17;100988.44;5194118;28;20331;-73
2023/06/15 08:00:13;;;;;;;7.33;1.43;;;;;;;30.48;42.46;100998.38;5193095;28;20032;-73
2023/06/15 08:02:44;;;;;;;2.95;1.45;;;;;;;30.56;42.74;100994.81;5206953;28;20348;-73
2023/06/15 08:05:15;;;;;;;4.33;1.40;;;;;;;29.37;42.59;100993.69;5206142;28;20021;-73
2023/06/15 08:07:45;;;;;;;3.60;1.30;;;;;;;29.46;43.77;101001.66;5207844;28;20267;-72
2023/06/15 08:10:17;;;;;;;3.75;1.60;;;;;;;29.20;44.56;100998.16;5207386;28;20395;-73
2023/06/15 08:12:48;;;;;;;5.80;2.42;;;;;;;30.53;41.81;100984.34;5208725;28;20043;-73
2023/06/15 08:15:18;;;;;;;6.13;1.30;;;;;;;30.09;42.51;100991.16;5207235;28;20025;-73
2023/06/15 08:17:48;;;;;;;2.70;1.60;;;;;;;29.41;42.91;101001.25;5191834;28;20402;-72
2023/06/15 08:20:19;;;;;;;2.15;1.50;;;;;;;29.93;42.59;100991.94;5207428;28;20029;-73
2023/06/15 08:22:49;;;;;;;6.55;1.70;;;;;;;29.03;44.62;100995.59;5210652;28;20039;-73
2023/06/15 08:25:20;;;;;;;2.85;1.30;;;;;;;29.17;43.46;100992.25;5191704;28;20399;-73
2023/06/15 08:27:50;;;;;;;2.10;1.40;;;;;;;29.02;43.67;100988.50;5207034;28;20203;-73
2023/06/15 08:30:20;;;;;;;2.33;1.50;;;;;;;29.60;43.34;100990.22;5207232;28;20017;-72
2023/06/15 08:32:51;;;;;;;2.73;1.43;;;;;;;30.72;41.51;100983.97;5195248;28;20331;-73
2023/06/15 08:35:21;;;;;;;3.57;1.50;;;;;;;30.15;41.54;100990.47;5205679;28;20030;-73
2023/06/15 08:37:51;;;;;;;3.20;1.40;;;;;;;31.41;40.09;100976.78;5194184;28;20027;-74
2023/06/15 08:40:22;;;;;;;4.80;1.45;;;;;;;31.52;41.54;100979.09;5194931;28;20276;-73
2023/06/15 08:42:53;;;;;;;2.57;1.47;;;;;;;31.39;40.76;100984.22;5208074;28;20025;-73
2023/06/15 08:45:29;;;;;;;5.72;2.35;;;;;;;30.81;42.24;100980.25;5207378;28;20700;-73
2023/06/15 08:48:05;;;;;;;2.42;1.52;;;;;;;30.68;41.35;100978.09;5208277;28;20031;-74
2023/06/15 08:50:37;;;;;;;4.05;1.70;;;;;;;32.17;40.06;100977.56;5209589;28;20033;-74
2023/06/15 08:53:08;;;;;;;9.07;1.58;;;;;;;32.24;38.55;100982.09;5207729;28;20055;-74
2023/06/15 08:55:39;;;;;;;3.15;1.40;;;;;;;32.95;38.40;100979.69;5208714;28;20033;-74
2023/06/15 08:58:10;;;;;;;3.40;1.70;;;;;;;32.43;38.90;100983.47;5201532;28;20562;-73
2023/06/15 09:00:40;;;;;;;5.72;1.70;;;;;;;30.12;41.04;100975.44;5207516;28;20064;-73
2023/06/15 09:03:11;;;;;;;4.38;1.70;;;;;;;29.35;42.48;100979.53;5189000;28;20061;-72
2023/06/15 09:05:42;;;;;;;8.57;1.50;;;;;;;27.66;44.86;100974.03;5210358;28;20033;-73
2023/06/15 09:08:13;;;;;;;5.05;1.60;;;;;;;27.66;44.79;100974.03;5206360;28;20034;-73
2023/06/15 09:10:43;;;;;;;4.87;1.40;;;;;;;30.86;41.65;100971.44;5211648;28;20098;-73
2023/06/15 09:13:18;;;;;;;4.07;1.38;;;;;;;31.76;40.15;100960.88;5193888;28;20475;-73
2023/06/15 09:15:58;;;;;;;4.43;1.40;;;;;;;30.44;41.39;100969.19;5209570;28;20090;-73
2023/06/15 09:18:40;;;;;;;2.78;1.60;;;;;;;30.04;41.92;100971.91;5206364;28;20037;-73
2023/06/15 09:21:13;;;;;;;2.90;1.25;;;;;;;29.44;41.96;100978.53;5208214;28;20522;-73
2023/06/15 09:23:45;;;;;;;5.88;1.60;;;;;;;31.57;40.44;100961.28;5210873;28;20040;-73
2023/06/15 09:26:27;;;;;;;3.33;1.20;;;;;;;31.84;38.46;100968.91;5206175;28;20107;-73
2023/06/15 09:28:58;;;;;;;4.78;1.30;;;;;;;32.88;37.45;100959.78;5203868;28;20044;-73
2023/06/15 09:31:30;;;;;;;2.63;1.35;;;;;;;31.56;38.50;100973.13;5195908;28;20033;-73
2023/06/15 09:34:09;;;;;;;3.25;1.80;;;;;;;31.72;38.27;100967.63;5180744;28;20096;-74
2023/06/15 09:36:40;;;;;;;6.38;1.63;;;;;;;32.03;38.21;100962.16;5203968;28;20430;-74
2023/06/15 09:39:11;;;;;;;3.72;1.40;;;;;;;30.20;40.50;100956.56;5206119;28;20029;-74
2023/06/15 09:42:01;;;;;;;3.20;1.17;;;;;;;31.57;39.50;100961.28;5197670;28;20032;-74
2023/06/15 09:44:33;;;;;;;4.05;1.48;;;;;;;31.97;39.45;100954.75;5211489;28;20116;-73
2023/06/15 09:47:15;;;;;;;3.85;1.50;;;;;;;31.29;40.34;100957.44;5213473;28;20021;-73
2023/06/15 09:49:48;;;;;;;4.35;1.70;;;;;;;30.34;41.11;100955.88;5212659;28;20253;-74
2023/06/15 09:52:18;;;;;;;3.05;1.73;;;;;;;29.60;42.87;100962.44;5199819;28;20113;-73
2023/06/15 09:54:49;;;;;;;3.43;1.63;;;;;;;29.30;42.60;100960.31;5215101;28;20104;-71
2023/06/15 09:57:19;;;;;;;2.55;1.45;;;;;;;29.39;42.33;100959.34;5208844;28;20284;-72
2023/06/15 09:59:51;;;;;;;2.70;1.50;;;;;;;28.14;43.19;100961.00;5198465;28;20140;-72
2023/06/15 10:02:22;;;;;;;4.00;2.05;;;;;;;28.04;42.32;100962.13;5208648;28;20128;-72
2023/06/15 10:04:53;;;;;;;3.40;1.75;;;;;;;28.68;42.23;100949.94;5214827;28;20107;-73
2023/06/15 10:07:24;;;;;;;4.75;2.75;;;;;;;27.74;43.08;100962.53;5209367;28;20563;-72
2023/06/15 10:09:55;;;;;;;3.35;1.58;;;;;;;28.21;43.83;100947.78;5200544;28;20029;-71
2023/06/15 10:12:28;;;;;;;2.97;1.63;;;;;;;28.90;41.93;100947.56;5213202;28;20091;-73
2023/06/15 10:15:04;;;;;;;5.00;1.70;;;;;;;28.25;42.63;100949.16;5214261;28;20017;-73
2023/06/15 10:17:37;;;;;;;4.45;1.63;;;;;;;28.96;43.24;100941.53;5214247;28;20088;-74
2023/06/15 10:20:17;;;;;;;6.15;1.88;;;;;;;27.50;45.00;100947.00;5213369;28;20036;-72
2023/06/15 10:23:04;;;;;;;4.88;1.67;;;;;;;27.68;44.83;100952.38;5215616;28;20137;-71
2023/06/15 10:25:35;;;;;;;5.55;1.77;;;;;;;28.23;43.50;100943.94;5212482;28;20041;-73
2023/06/15 10:28:13;;;;;;;3.83;1.90;;;;;;;27.83;44.59;100949.03;5210998;28;20025;-73
2023/06/15 10:30:55;;;;;;;6.78;1.92;;;;;;;27.35;43.71;100943.16;5208925;28;20021;-73
2023/06/15 10:33:26;;;;;;;6.50;2.33;;;;;;;26.86;44.29;100935.53;5203336;28;20038;-72
2023/06/15 10:36:03;;;;;;;3.60;1.70;;;;;;;26.62;44.44;100937.03;5191214;28;20205;-73
2023/06/15 10:38:59;;;;;;;3.00;1.77;;;;;;;27.27;42.93;100928.81;5207496;28;20029;-72
2023/06/15 10:41:30;;;;;;;2.60;1.73;;;;;;;27.34;44.74;100930.72;5209171;28;20033;-73
2023/06/15 10:44:02;;;;;;;5.22;1.88;;;;;;;27.09;44.74;100931.41;5212911;28;20044;-73
2023/06/15 10:46:34;;;;;;;3.33;1.70;;;;;;;27.34;44.33;100932.56;5198869;28;20395;-71
2023/06/15 10:49:09;;;;;;;5.90;1.70;;;;;;;27.08;44.13;100919.00;5209379;28;20107;-72
2023/06/15 10:51:42;;;;;;;6.47;2.05;;;;;;;25.70;44.90;100931.53;5200355;28;20060;-73
2023/06/15 10:54:22;;;;;;;2.60;1.73;;;;;;;26.30;45.14;100925.84;5196940;28;20463;-72
2023/06/15 10:56:55;;;;;;;4.78;1.88;;;;;;;26.78;43.57;100924.66;5196726;28;20051;-72
2023/06/15 10:59:53;;;;;;;4.15;1.90;;;;;;;26.90;44.57;100915.44;5206347;28;20117;-73
2023/06/15 11:02:31;;;;;;;8.13;1.95;;;;;;;27.63;45.89;100917.06;5206464;28;20061;-73
2023/06/15 11:05:05;;;;;;;2.97;1.60;;;;;;;27.86;43.90;100904.84;5208806;28;20017;-72
2023/06/15 11:07:40;;;;;;;5.05;1.60;;;;;;;27.91;44.41;100911.44;5199376;28;20063;-72
2023/06/15 11:10:31;;;;;;;5.13;1.70;;;;;;;27.94;43.12;100908.44;5204245;28;20866;-73
2023/06/15 11:13:05;;;;;;;5.45;1.70;;;;;;;27.29;44.01;100914.22;5208282;28;20494;-73
2023/06/15 11:15:37;;;;;;;3.43;1.73;;;;;;;27.54;44.59;100913.47;5212402;28;20107;-73
2023/06/15 11:18:14;;;;;;;4.00;1.70;;;;;;;26.68;44.68;100914.16;5205334;28;20031;-71
2023/06/15 11:20:51;;;;;;;6.88;1.90;;;;;;;26.76;43.86;100907.06;5204534;28;20028;-73
2023/06/15 11:23:23;;;;;;;3.13;1.50;;;;;;;26.58;43.94;100907.97;5210681;28;20048;-72
2023/06/15 11:25:54;;;;;;;5.72;1.70;;;;;;;25.94;44.76;100902.50;5199304;28;20540;-72
2023/06/15 11:28:24;;;;;;;4.75;1.83;;;;;;;26.24;43.64;100898.75;5205004;28;20030;-73
2023/06/15 11:30:57;;;;;;;3.83;1.77;;;;;;;26.63;44.53;100903.00;5211961;28;20187;-73
2023/06/15 11:33:32;;;;;;;3.40;1.70;;;;;;;26.67;45.39;100899.06;5209481;28;20161;-73
2023/06/15 11:36:04;;;;;;;5.75;1.50;;;;;;;27.13;43.83;100895.25;5213272;28;20090;-73
2023/06/15 11:38:35;;;;;;;2.92;1.70;;;;;;;27.21;43.92;100897.19;5213633;28;20070;-73
2023/06/15 11:41:07;;;;;;;7.40;1.80;;;;;;;27.27;43.96;100892.03;5209699;28;20029;-73
2023/06/15 11:43:48;;;;;;;2.00;1.45;;;;;;;27.47;43.73;100892.75;5196770;28;20040;-73
2023/06/15 11:46:21;;;;;;;5.35;1.83;;;;;;;27.41;42.54;100888.81;5213324;28;20032;-73
2023/06/15 11:48:56;;;;;;;3.22;1.55;;;;;;;27.24;43.03;100884.31;5191266;28;20526;-72